Skip Navigation LinksHome page > Weather > Current weather Skip Navigation Links

Current Weather

San Diego Intl-Lindbergh Fld, San Diego

For information only: do not use for flight planning or navigation.
Latest weather
Observation time Sunday, September 20, 2020 12:51 AM PDT
Local time Sunday, September 20, 2020 1:16 AM PDT
Flight conditions Visual Meteorological Conditions
Winds
Wind direction West-Northwest (290°)
Wind speed 5 mph
Visibility 10 mi.
Sky condition
Ceiling unlimited
Cloud layer scattered clouds 1,000 ft.
Temperature 70°F
Dewpoint 64°F
Altimeter 29.86 in.Hg
Derived measurements
Relative humidity 81%
Density altitude 1075 ft.
Sea-level pressure 29.86 in.Hg
Climate data
Temperature minimum, last 24 hours 66°F
Temperature maximum, last 24 hours 82°F
Remarks
Automated weather observing station with precipitation discriminator.
METAR KSAN 200751Z 29004KT 10SM SCT010 21/18 A2986 RMK AO2 SLP112 T02110178 402780189

Settings

Location code

InnerDrive.Weather 4.0.6770.0 Release CLR 4.0.30319.42000
Copyright ©2018 Inner Drive Technology. All rights reserved. Portions Copyright ©1986-2018 David Braverman.

Find weather

Site navigation


Skip Navigation Links

Place info

Page info

PayPal - The safer, easier way to pay online!

Return home.

Copyright ©2020 Inner Drive Technology. Purveyors of fine, hand-crafted computer software. Page printed 2020-09-20T08:16:43 UTC.